Roy Baker — WDC2698 — position and weather

sailwx.info

Track history (hours):
 
Tides and Currents Weather Stations Pressure Air Temp Water Temp Dewpoint Dewpoint Depression Visibility Wind Speed Wind Dir Waves Ship Positions

Roy Baker

Owner: Kirby Inland Marine LP, Houston, TX. More information available from US FCC via Universal Licensing System and Coast Guard Vessel Documentation Center.

Last reported at 2014-Oct-27 04:29 UTC. Time now 2014-Oct-31 17:18 UTC.
Position N 29°60' W 090°01'.

Length 24 m; draft 2.3 m.

Type: Towing. MMSI: 366996540.

Date/timePositionNaut miles runAvg speedWind from/ knotsBaromVisibWave heightAir tempDewpointWater temp
2014-Oct-27 04:29N 29°60' W 090°01'3 2.2
2014-Oct-27 03:17N 29°57' W 090°01'0 0.5
2014-Oct-27 02:32N 29°57' W 090°01'2 1.9
2014-Oct-27 01:19N 29°56' W 089°59'0 0.0
2014-Oct-27 00:11N 29°56' W 089°59'0 0.0
2014-Oct-26 22:23N 29°56' W 089°59'0 0.0
2014-Oct-26 21:33N 29°56' W 089°59'0 0.0
2014-Oct-26 20:23N 29°56' W 089°59'0 0.0
2014-Oct-26 19:12N 29°56' W 089°59'0 0.0
2014-Oct-26 18:30N 29°56' W 089°59'0 0.0
2014-Oct-26 17:33N 29°56' W 089°59'0 0.0
2014-Oct-26 16:33N 29°56' W 089°59'0 0.0
2014-Oct-26 15:25N 29°56' W 089°59'0 0.0
2014-Oct-26 14:33N 29°56' W 089°59'0 0.0
2014-Oct-26 13:28N 29°56' W 089°59'0 0.0
2014-Oct-26 12:16N 29°56' W 089°59'0 0.0
2014-Oct-26 11:26N 29°56' W 089°59'0 0.0
2014-Oct-25 21:30N 29°56' W 089°59'0 0.0
2014-Oct-25 20:24N 29°56' W 089°59'0 0.0
2014-Oct-25 19:33N 29°56' W 089°59'0 0.0
2014-Oct-25 18:32N 29°56' W 089°59'0 0.0
2014-Oct-25 17:17N 29°56' W 089°59'0 0.0
2014-Oct-25 16:24N 29°56' W 089°59'0 0.0
2014-Oct-25 15:25N 29°56' W 089°59'0 0.0
2014-Oct-25 14:31N 29°56' W 089°59'0 0.0
2014-Oct-25 13:32N 29°56' W 089°59'0 0.0
2014-Oct-25 12:33N 29°56' W 089°59'0 0.0
2014-Oct-25 11:27N 29°56' W 089°59'1 1.0
2014-Oct-25 10:27N 29°55' W 089°58'1 0.6
2014-Oct-25 09:32N 29°55' W 089°59'0 0.0
2014-Oct-25 08:28N 29°55' W 089°59'0 0.0
2014-Oct-25 07:33N 29°55' W 089°59'0 0.0
2014-Oct-25 06:29N 29°55' W 089°59'0 0.0
2014-Oct-25 05:31N 29°55' W 089°59'0 0.0
2014-Oct-25 04:30N 29°55' W 089°59'0 0.0
2014-Oct-25 02:09N 29°55' W 089°59'35 2.5
2014-Oct-24 12:22N 29°34' W 090°31'11 3.9
2014-Oct-24 09:34N 29°34' W 090°44'6 5.3
2014-Oct-24 08:31N 29°32' W 090°50'6 5.8
2014-Oct-24 07:33N 29°34' W 090°56'5 5.3
2014-Oct-24 06:33N 29°37' W 091°00'5 5.5
2014-Oct-24 05:33N 29°38' W 091°07'4 4.1
2014-Oct-24 04:34N 29°41' W 091°10'4 3.9
2014-Oct-24 03:33N 29°40' W 091°14'5 4.6
2014-Oct-24 02:33N 29°38' W 091°20'5 5.0
2014-Oct-24 01:34N 29°39' W 091°25'5 4.7
2014-Oct-24 00:34N 29°42' W 091°30'  
Track history (hours):
 
Tides and Currents Weather Stations Pressure Air Temp Water Temp Dewpoint Dewpoint Depression Visibility Wind Speed Wind Dir Waves Ship Positions

Roy Baker

Owner: Kirby Inland Marine LP, Houston, TX. More information available from US FCC via Universal Licensing System and Coast Guard Vessel Documentation Center.

Last reported at 2014-Oct-27 04:29 UTC. Time now 2014-Oct-31 17:18 UTC.
Position N 29°60' W 090°01'.

Length 24 m; draft 2.3 m.

Type: Towing. MMSI: 366996540.

Date/timePositionNaut miles runAvg speedWind from/ knotsBaromVisibWave heightAir tempDewpointWater temp
2014-Oct-27 04:29N 29°60' W 090°01'3 2.2
2014-Oct-27 03:17N 29°57' W 090°01'0 0.5
2014-Oct-27 02:32N 29°57' W 090°01'2 1.9
2014-Oct-27 01:19N 29°56' W 089°59'0 0.0
2014-Oct-27 00:11N 29°56' W 089°59'0 0.0
2014-Oct-26 22:23N 29°56' W 089°59'0 0.0
2014-Oct-26 21:33N 29°56' W 089°59'0 0.0
2014-Oct-26 20:23N 29°56' W 089°59'0 0.0
2014-Oct-26 19:12N 29°56' W 089°59'0 0.0
2014-Oct-26 18:30N 29°56' W 089°59'0 0.0
2014-Oct-26 17:33N 29°56' W 089°59'0 0.0
2014-Oct-26 16:33N 29°56' W 089°59'0 0.0
2014-Oct-26 15:25N 29°56' W 089°59'0 0.0
2014-Oct-26 14:33N 29°56' W 089°59'0 0.0
2014-Oct-26 13:28N 29°56' W 089°59'0 0.0
2014-Oct-26 12:16N 29°56' W 089°59'0 0.0
2014-Oct-26 11:26N 29°56' W 089°59'0 0.0
2014-Oct-25 21:30N 29°56' W 089°59'0 0.0
2014-Oct-25 20:24N 29°56' W 089°59'0 0.0
2014-Oct-25 19:33N 29°56' W 089°59'0 0.0
2014-Oct-25 18:32N 29°56' W 089°59'0 0.0
2014-Oct-25 17:17N 29°56' W 089°59'0 0.0
2014-Oct-25 16:24N 29°56' W 089°59'0 0.0
2014-Oct-25 15:25N 29°56' W 089°59'0 0.0
2014-Oct-25 14:31N 29°56' W 089°59'0 0.0
2014-Oct-25 13:32N 29°56' W 089°59'0 0.0
2014-Oct-25 12:33N 29°56' W 089°59'0 0.0
2014-Oct-25 11:27N 29°56' W 089°59'1 1.0
2014-Oct-25 10:27N 29°55' W 089°58'1 0.6
2014-Oct-25 09:32N 29°55' W 089°59'0 0.0
2014-Oct-25 08:28N 29°55' W 089°59'0 0.0
2014-Oct-25 07:33N 29°55' W 089°59'0 0.0
2014-Oct-25 06:29N 29°55' W 089°59'0 0.0
2014-Oct-25 05:31N 29°55' W 089°59'0 0.0
2014-Oct-25 04:30N 29°55' W 089°59'0 0.0
2014-Oct-25 02:09N 29°55' W 089°59'35 2.5
2014-Oct-24 12:22N 29°34' W 090°31'11 3.9
2014-Oct-24 09:34N 29°34' W 090°44'6 5.3
2014-Oct-24 08:31N 29°32' W 090°50'6 5.8
2014-Oct-24 07:33N 29°34' W 090°56'5 5.3
2014-Oct-24 06:33N 29°37' W 091°00'5 5.5
2014-Oct-24 05:33N 29°38' W 091°07'4 4.1
2014-Oct-24 04:34N 29°41' W 091°10'4 3.9
2014-Oct-24 03:33N 29°40' W 091°14'5 4.6
2014-Oct-24 02:33N 29°38' W 091°20'5 5.0
2014-Oct-24 01:34N 29°39' W 091°25'5 4.7
2014-Oct-24 00:34N 29°42' W 091°30'  

Dump ship's entire track history